sensor_id;sensor_type;location;lat;lon;timestamp;P1;durP1;ratioP1;P2;durP2;ratioP2
82125;SDS011;71668;51.400;6.758;2023-12-14T00:02:04;31.03;;;22.83;;
82125;SDS011;71668;51.400;6.758;2023-12-14T00:04:31;27.20;;;21.70;;
82125;SDS011;71668;51.400;6.758;2023-12-14T00:06:58;25.03;;;19.37;;
82125;SDS011;71668;51.400;6.758;2023-12-14T00:09:25;23.20;;;17.93;;
82125;SDS011;71668;51.400;6.758;2023-12-14T00:11:52;18.47;;;15.73;;
82125;SDS011;71668;51.400;6.758;2023-12-14T00:14:19;15.57;;;13.13;;
82125;SDS011;71668;51.400;6.758;2023-12-14T00:16:46;14.97;;;13.07;;
82125;SDS011;71668;51.400;6.758;2023-12-14T00:19:13;13.27;;;11.87;;
82125;SDS011;71668;51.400;6.758;2023-12-14T00:21:39;13.83;;;11.87;;
82125;SDS011;71668;51.400;6.758;2023-12-14T00:24:06;13.60;;;11.67;;
82125;SDS011;71668;51.400;6.758;2023-12-14T00:26:33;13.63;;;11.57;;
82125;SDS011;71668;51.400;6.758;2023-12-14T00:29:00;11.93;;;10.10;;
82125;SDS011;71668;51.400;6.758;2023-12-14T00:31:28;10.57;;;9.17;;
82125;SDS011;71668;51.400;6.758;2023-12-14T00:33:55;10.23;;;9.23;;
82125;SDS011;71668;51.400;6.758;2023-12-14T00:36:22;11.07;;;9.60;;
82125;SDS011;71668;51.400;6.758;2023-12-14T00:38:49;10.67;;;9.57;;
82125;SDS011;71668;51.400;6.758;2023-12-14T00:41:15;10.77;;;9.17;;
82125;SDS011;71668;51.400;6.758;2023-12-14T00:43:42;9.90;;;8.83;;
82125;SDS011;71668;51.400;6.758;2023-12-14T00:46:09;10.70;;;9.00;;
82125;SDS011;71668;51.400;6.758;2023-12-14T00:48:37;9.20;;;8.30;;
82125;SDS011;71668;51.400;6.758;2023-12-14T00:51:04;9.63;;;8.07;;
82125;SDS011;71668;51.400;6.758;2023-12-14T00:53:31;9.47;;;8.43;;
82125;SDS011;71668;51.400;6.758;2023-12-14T00:55:58;8.73;;;7.80;;
82125;SDS011;71668;51.400;6.758;2023-12-14T00:58:25;9.60;;;8.37;;
82125;SDS011;71668;51.400;6.758;2023-12-14T01:00:52;9.57;;;8.27;;
82125;SDS011;71668;51.400;6.758;2023-12-14T01:03:20;9.47;;;8.47;;
82125;SDS011;71668;51.400;6.758;2023-12-14T01:05:47;9.30;;;8.40;;
82125;SDS011;71668;51.400;6.758;2023-12-14T01:08:17;9.60;;;8.70;;
82125;SDS011;71668;51.400;6.758;2023-12-14T01:10:48;9.50;;;8.60;;
82125;SDS011;71668;51.400;6.758;2023-12-14T01:13:16;10.20;;;9.30;;
82125;SDS011;71668;51.400;6.758;2023-12-14T01:15:42;12.23;;;11.03;;
82125;SDS011;71668;51.400;6.758;2023-12-14T01:18:09;10.60;;;9.67;;
82125;SDS011;71668;51.400;6.758;2023-12-14T01:20:36;10.63;;;9.60;;
82125;SDS011;71668;51.400;6.758;2023-12-14T01:23:04;9.50;;;8.50;;
82125;SDS011;71668;51.400;6.758;2023-12-14T01:25:31;8.73;;;7.93;;
82125;SDS011;71668;51.400;6.758;2023-12-14T01:27:58;8.63;;;7.90;;
82125;SDS011;71668;51.400;6.758;2023-12-14T01:30:26;8.23;;;7.53;;
82125;SDS011;71668;51.400;6.758;2023-12-14T01:32:53;7.57;;;6.87;;
82125;SDS011;71668;51.400;6.758;2023-12-14T01:35:20;8.00;;;7.20;;
82125;SDS011;71668;51.400;6.758;2023-12-14T01:37:47;7.97;;;7.37;;
82125;SDS011;71668;51.400;6.758;2023-12-14T01:40:14;7.47;;;6.87;;
82125;SDS011;71668;51.400;6.758;2023-12-14T01:42:45;8.17;;;7.37;;
82125;SDS011;71668;51.400;6.758;2023-12-14T01:45:12;7.90;;;7.20;;
82125;SDS011;71668;51.400;6.758;2023-12-14T01:47:42;7.87;;;7.07;;
82125;SDS011;71668;51.400;6.758;2023-12-14T01:50:09;9.90;;;9.00;;
82125;SDS011;71668;51.400;6.758;2023-12-14T01:52:36;9.93;;;9.00;;
82125;SDS011;71668;51.400;6.758;2023-12-14T01:55:03;10.13;;;9.27;;
82125;SDS011;71668;51.400;6.758;2023-12-14T01:57:30;12.37;;;11.20;;
82125;SDS011;71668;51.400;6.758;2023-12-14T01:59:57;12.77;;;11.67;;
82125;SDS011;71668;51.400;6.758;2023-12-14T02:02:24;12.70;;;11.50;;
82125;SDS011;71668;51.400;6.758;2023-12-14T02:04:51;11.97;;;10.87;;
82125;SDS011;71668;51.400;6.758;2023-12-14T02:07:18;13.00;;;11.70;;
82125;SDS011;71668;51.400;6.758;2023-12-14T02:09:45;11.83;;;10.73;;
82125;SDS011;71668;51.400;6.758;2023-12-14T02:12:12;11.00;;;10.00;;
82125;SDS011;71668;51.400;6.758;2023-12-14T02:14:39;11.67;;;10.57;;
82125;SDS011;71668;51.400;6.758;2023-12-14T02:17:06;11.17;;;9.97;;
82125;SDS011;71668;51.400;6.758;2023-12-14T02:19:33;11.07;;;9.97;;
82125;SDS011;71668;51.400;6.758;2023-12-14T02:22:00;12.77;;;11.57;;
82125;SDS011;71668;51.400;6.758;2023-12-14T02:24:27;13.37;;;12.07;;
82125;SDS011;71668;51.400;6.758;2023-12-14T02:26:54;15.63;;;14.13;;
82125;SDS011;71668;51.400;6.758;2023-12-14T02:29:29;15.13;;;13.60;;
82125;SDS011;71668;51.400;6.758;2023-12-14T02:31:59;16.70;;;15.10;;
82125;SDS011;71668;51.400;6.758;2023-12-14T02:34:26;17.23;;;15.53;;
82125;SDS011;71668;51.400;6.758;2023-12-14T02:36:53;17.60;;;15.90;;
82125;SDS011;71668;51.400;6.758;2023-12-14T02:39:20;17.67;;;15.97;;
82125;SDS011;71668;51.400;6.758;2023-12-14T02:41:47;18.90;;;16.90;;
82125;SDS011;71668;51.400;6.758;2023-12-14T02:44:14;19.77;;;17.77;;
82125;SDS011;71668;51.400;6.758;2023-12-14T02:46:40;21.10;;;18.90;;
82125;SDS011;71668;51.400;6.758;2023-12-14T02:49:08;23.20;;;18.47;;
82125;SDS011;71668;51.400;6.758;2023-12-14T02:51:35;19.50;;;17.47;;
82125;SDS011;71668;51.400;6.758;2023-12-14T02:54:02;18.30;;;16.50;;
82125;SDS011;71668;51.400;6.758;2023-12-14T02:56:29;16.73;;;15.03;;
82125;SDS011;71668;51.400;6.758;2023-12-14T02:58:56;16.30;;;14.60;;
82125;SDS011;71668;51.400;6.758;2023-12-14T03:01:23;16.10;;;14.50;;
82125;SDS011;71668;51.400;6.758;2023-12-14T03:03:50;14.93;;;13.53;;
82125;SDS011;71668;51.400;6.758;2023-12-14T03:06:17;14.30;;;12.77;;
82125;SDS011;71668;51.400;6.758;2023-12-14T03:08:44;13.90;;;12.50;;
82125;SDS011;71668;51.400;6.758;2023-12-14T03:11:20;14.27;;;12.77;;
82125;SDS011;71668;51.400;6.758;2023-12-14T03:13:48;13.40;;;11.97;;
82125;SDS011;71668;51.400;6.758;2023-12-14T03:16:14;12.47;;;10.93;;
82125;SDS011;71668;51.400;6.758;2023-12-14T03:18:43;13.37;;;11.90;;
82125;SDS011;71668;51.400;6.758;2023-12-14T03:21:10;12.63;;;11.33;;
82125;SDS011;71668;51.400;6.758;2023-12-14T03:23:37;13.50;;;11.23;;
82125;SDS011;71668;51.400;6.758;2023-12-14T03:26:04;12.47;;;10.80;;
82125;SDS011;71668;51.400;6.758;2023-12-14T03:28:31;14.43;;;11.87;;
82125;SDS011;71668;51.400;6.758;2023-12-14T03:30:58;12.93;;;11.50;;
82125;SDS011;71668;51.400;6.758;2023-12-14T03:33:25;13.80;;;11.87;;
82125;SDS011;71668;51.400;6.758;2023-12-14T03:35:56;15.30;;;12.73;;
82125;SDS011;71668;51.400;6.758;2023-12-14T03:38:26;14.03;;;12.13;;
82125;SDS011;71668;51.400;6.758;2023-12-14T03:40:56;14.00;;;12.50;;
82125;SDS011;71668;51.400;6.758;2023-12-14T03:43:28;15.23;;;13.63;;
82125;SDS011;71668;51.400;6.758;2023-12-14T03:45:55;15.37;;;13.73;;
82125;SDS011;71668;51.400;6.758;2023-12-14T03:48:23;18.43;;;14.90;;
82125;SDS011;71668;51.400;6.758;2023-12-14T03:50:50;16.97;;;15.17;;
82125;SDS011;71668;51.400;6.758;2023-12-14T03:53:18;17.73;;;15.87;;
82125;SDS011;71668;51.400;6.758;2023-12-14T03:55:47;19.53;;;17.43;;
82125;SDS011;71668;51.400;6.758;2023-12-14T03:58:17;18.17;;;16.23;;
82125;SDS011;71668;51.400;6.758;2023-12-14T04:00:47;23.10;;;20.57;;
82125;SDS011;71668;51.400;6.758;2023-12-14T04:03:14;30.60;;;24.27;;
82125;SDS011;71668;51.400;6.758;2023-12-14T04:05:41;29.93;;;23.97;;
82125;SDS011;71668;51.400;6.758;2023-12-14T04:08:10;29.40;;;24.60;;
82125;SDS011;71668;51.400;6.758;2023-12-14T04:10:37;28.07;;;24.37;;
82125;SDS011;71668;51.400;6.758;2023-12-14T04:13:04;29.30;;;23.87;;
82125;SDS011;71668;51.400;6.758;2023-12-14T04:15:31;28.23;;;23.47;;
82125;SDS011;71668;51.400;6.758;2023-12-14T04:17:58;26.17;;;22.60;;
82125;SDS011;71668;51.400;6.758;2023-12-14T04:20:25;24.80;;;20.87;;
82125;SDS011;71668;51.400;6.758;2023-12-14T04:22:52;25.93;;;22.73;;
82125;SDS011;71668;51.400;6.758;2023-12-14T04:25:19;27.77;;;22.53;;
82125;SDS011;71668;51.400;6.758;2023-12-14T04:27:46;26.37;;;21.73;;
82125;SDS011;71668;51.400;6.758;2023-12-14T04:30:14;25.87;;;21.90;;
82125;SDS011;71668;51.400;6.758;2023-12-14T04:32:41;24.67;;;20.87;;
82125;SDS011;71668;51.400;6.758;2023-12-14T04:35:08;27.63;;;21.23;;
82125;SDS011;71668;51.400;6.758;2023-12-14T04:37:38;26.87;;;21.70;;
82125;SDS011;71668;51.400;6.758;2023-12-14T04:40:07;27.47;;;22.23;;
82125;SDS011;71668;51.400;6.758;2023-12-14T04:42:35;25.40;;;21.37;;
82125;SDS011;71668;51.400;6.758;2023-12-14T04:45:03;26.83;;;21.67;;
82125;SDS011;71668;51.400;6.758;2023-12-14T04:47:30;28.17;;;22.43;;
82125;SDS011;71668;51.400;6.758;2023-12-14T04:50:05;27.40;;;22.53;;
82125;SDS011;71668;51.400;6.758;2023-12-14T04:52:33;26.63;;;22.27;;
82125;SDS011;71668;51.400;6.758;2023-12-14T04:55:00;23.47;;;20.93;;
82125;SDS011;71668;51.400;6.758;2023-12-14T04:57:27;23.23;;;19.73;;
82125;SDS011;71668;51.400;6.758;2023-12-14T05:00:06;20.47;;;18.27;;
82125;SDS011;71668;51.400;6.758;2023-12-14T05:02:34;19.97;;;17.87;;
82125;SDS011;71668;51.400;6.758;2023-12-14T05:05:04;19.50;;;17.20;;
82125;SDS011;71668;51.400;6.758;2023-12-14T05:07:31;19.50;;;17.40;;
82125;SDS011;71668;51.400;6.758;2023-12-14T05:09:58;20.00;;;17.90;;
82125;SDS011;71668;51.400;6.758;2023-12-14T05:12:24;21.57;;;18.40;;
82125;SDS011;71668;51.400;6.758;2023-12-14T05:14:53;18.27;;;16.37;;
82125;SDS011;71668;51.400;6.758;2023-12-14T05:17:22;20.33;;;17.57;;
82125;SDS011;71668;51.400;6.758;2023-12-14T05:19:49;19.80;;;17.70;;
82125;SDS011;71668;51.400;6.758;2023-12-14T05:22:16;18.73;;;16.73;;
82125;SDS011;71668;51.400;6.758;2023-12-14T05:24:46;19.87;;;17.20;;
82125;SDS011;71668;51.400;6.758;2023-12-14T05:27:13;20.77;;;17.17;;
82125;SDS011;71668;51.400;6.758;2023-12-14T05:29:40;21.60;;;17.87;;
82125;SDS011;71668;51.400;6.758;2023-12-14T05:32:07;19.60;;;16.30;;
82125;SDS011;71668;51.400;6.758;2023-12-14T05:34:34;19.37;;;16.00;;
82125;SDS011;71668;51.400;6.758;2023-12-14T05:37:01;18.37;;;15.37;;
82125;SDS011;71668;51.400;6.758;2023-12-14T05:39:28;17.07;;;15.00;;
82125;SDS011;71668;51.400;6.758;2023-12-14T05:41:55;17.77;;;15.53;;
82125;SDS011;71668;51.400;6.758;2023-12-14T05:44:22;17.53;;;15.27;;
82125;SDS011;71668;51.400;6.758;2023-12-14T05:46:49;19.03;;;16.07;;
82125;SDS011;71668;51.400;6.758;2023-12-14T05:49:16;19.30;;;17.30;;
82125;SDS011;71668;51.400;6.758;2023-12-14T05:51:43;19.70;;;17.60;;
82125;SDS011;71668;51.400;6.758;2023-12-14T05:54:10;20.20;;;18.10;;
82125;SDS011;71668;51.400;6.758;2023-12-14T05:56:37;20.97;;;18.10;;
82125;SDS011;71668;51.400;6.758;2023-12-14T05:59:05;19.83;;;17.73;;
82125;SDS011;71668;51.400;6.758;2023-12-14T06:01:32;21.67;;;17.87;;
82125;SDS011;71668;51.400;6.758;2023-12-14T06:03:59;18.20;;;16.20;;
82125;SDS011;71668;51.400;6.758;2023-12-14T06:06:26;18.33;;;15.97;;
82125;SDS011;71668;51.400;6.758;2023-12-14T06:08:53;17.93;;;16.13;;
82125;SDS011;71668;51.400;6.758;2023-12-14T06:11:20;17.20;;;15.50;;
82125;SDS011;71668;51.400;6.758;2023-12-14T06:13:47;17.50;;;15.70;;
82125;SDS011;71668;51.400;6.758;2023-12-14T06:16:14;18.67;;;16.63;;
82125;SDS011;71668;51.400;6.758;2023-12-14T06:18:41;20.47;;;16.93;;
82125;SDS011;71668;51.400;6.758;2023-12-14T06:21:10;20.67;;;17.53;;
82125;SDS011;71668;51.400;6.758;2023-12-14T06:23:38;19.03;;;16.90;;
82125;SDS011;71668;51.400;6.758;2023-12-14T06:26:05;18.13;;;16.23;;
82125;SDS011;71668;51.400;6.758;2023-12-14T06:28:32;19.23;;;16.13;;
82125;SDS011;71668;51.400;6.758;2023-12-14T06:30:59;18.17;;;16.27;;
82125;SDS011;71668;51.400;6.758;2023-12-14T06:33:28;17.70;;;15.80;;
82125;SDS011;71668;51.400;6.758;2023-12-14T06:35:55;20.90;;;18.73;;
82125;SDS011;71668;51.400;6.758;2023-12-14T06:38:22;22.93;;;19.73;;
82125;SDS011;71668;51.400;6.758;2023-12-14T06:41:00;24.33;;;21.20;;
82125;SDS011;71668;51.400;6.758;2023-12-14T06:43:33;25.90;;;21.33;;
82125;SDS011;71668;51.400;6.758;2023-12-14T06:46:00;25.97;;;21.17;;
82125;SDS011;71668;51.400;6.758;2023-12-14T06:48:26;28.00;;;22.23;;
82125;SDS011;71668;51.400;6.758;2023-12-14T06:50:57;25.60;;;21.67;;
82125;SDS011;71668;51.400;6.758;2023-12-14T06:53:24;25.97;;;21.80;;
82125;SDS011;71668;51.400;6.758;2023-12-14T06:55:51;24.63;;;20.47;;
82125;SDS011;71668;51.400;6.758;2023-12-14T06:58:17;24.43;;;21.27;;
82125;SDS011;71668;51.400;6.758;2023-12-14T07:00:44;26.33;;;22.40;;
82125;SDS011;71668;51.400;6.758;2023-12-14T07:03:11;26.03;;;22.93;;
82125;SDS011;71668;51.400;6.758;2023-12-14T07:05:39;24.80;;;21.83;;
82125;SDS011;71668;51.400;6.758;2023-12-14T07:08:05;24.97;;;22.20;;
82125;SDS011;71668;51.400;6.758;2023-12-14T07:10:33;26.17;;;23.00;;
82125;SDS011;71668;51.400;6.758;2023-12-14T07:13:00;26.43;;;23.17;;
82125;SDS011;71668;51.400;6.758;2023-12-14T07:15:27;26.03;;;23.23;;
82125;SDS011;71668;51.400;6.758;2023-12-14T07:17:54;31.23;;;24.83;;
82125;SDS011;71668;51.400;6.758;2023-12-14T07:20:21;28.17;;;23.87;;
82125;SDS011;71668;51.400;6.758;2023-12-14T07:22:48;29.13;;;24.43;;
82125;SDS011;71668;51.400;6.758;2023-12-14T07:25:15;30.17;;;25.20;;
82125;SDS011;71668;51.400;6.758;2023-12-14T07:27:42;31.40;;;25.40;;
82125;SDS011;71668;51.400;6.758;2023-12-14T07:30:09;33.33;;;25.80;;
82125;SDS011;71668;51.400;6.758;2023-12-14T07:32:37;31.40;;;24.97;;
82125;SDS011;71668;51.400;6.758;2023-12-14T07:35:05;33.53;;;26.80;;
82125;SDS011;71668;51.400;6.758;2023-12-14T07:37:32;31.57;;;26.50;;
82125;SDS011;71668;51.400;6.758;2023-12-14T07:39:59;31.70;;;25.47;;
82125;SDS011;71668;51.400;6.758;2023-12-14T07:42:26;29.43;;;25.23;;
82125;SDS011;71668;51.400;6.758;2023-12-14T07:44:52;32.00;;;25.87;;
82125;SDS011;71668;51.400;6.758;2023-12-14T07:47:20;27.23;;;23.43;;
82125;SDS011;71668;51.400;6.758;2023-12-14T07:49:47;29.67;;;23.63;;
82125;SDS011;71668;51.400;6.758;2023-12-14T07:52:14;29.90;;;23.90;;
82125;SDS011;71668;51.400;6.758;2023-12-14T07:54:41;30.97;;;25.73;;
82125;SDS011;71668;51.400;6.758;2023-12-14T07:57:08;29.90;;;25.30;;
82125;SDS011;71668;51.400;6.758;2023-12-14T07:59:35;32.07;;;27.77;;
82125;SDS011;71668;51.400;6.758;2023-12-14T08:02:02;33.70;;;28.63;;
82125;SDS011;71668;51.400;6.758;2023-12-14T08:04:29;37.23;;;31.13;;
82125;SDS011;71668;51.400;6.758;2023-12-14T08:06:56;35.93;;;29.77;;
82125;SDS011;71668;51.400;6.758;2023-12-14T08:09:22;32.37;;;28.60;;
82125;SDS011;71668;51.400;6.758;2023-12-14T08:11:49;31.07;;;27.13;;
82125;SDS011;71668;51.400;6.758;2023-12-14T08:14:18;33.93;;;27.03;;
82125;SDS011;71668;51.400;6.758;2023-12-14T08:16:45;30.73;;;27.07;;
82125;SDS011;71668;51.400;6.758;2023-12-14T08:19:12;30.30;;;25.73;;
82125;SDS011;71668;51.400;6.758;2023-12-14T08:21:39;28.47;;;25.27;;
82125;SDS011;71668;51.400;6.758;2023-12-14T08:24:06;31.20;;;25.93;;
82125;SDS011;71668;51.400;6.758;2023-12-14T08:26:33;28.93;;;25.77;;
82125;SDS011;71668;51.400;6.758;2023-12-14T08:29:00;29.63;;;25.03;;
82125;SDS011;71668;51.400;6.758;2023-12-14T08:31:27;31.10;;;25.97;;
82125;SDS011;71668;51.400;6.758;2023-12-14T08:33:54;30.77;;;25.67;;
82125;SDS011;71668;51.400;6.758;2023-12-14T08:36:21;28.90;;;25.73;;
82125;SDS011;71668;51.400;6.758;2023-12-14T08:38:53;33.87;;;26.70;;
82125;SDS011;71668;51.400;6.758;2023-12-14T08:41:20;29.77;;;24.07;;
82125;SDS011;71668;51.400;6.758;2023-12-14T08:43:47;26.90;;;23.73;;
82125;SDS011;71668;51.400;6.758;2023-12-14T08:46:14;30.07;;;24.80;;
82125;SDS011;71668;51.400;6.758;2023-12-14T08:48:41;29.80;;;24.67;;
82125;SDS011;71668;51.400;6.758;2023-12-14T08:51:08;27.47;;;24.17;;
82125;SDS011;71668;51.400;6.758;2023-12-14T08:53:35;27.13;;;24.00;;
82125;SDS011;71668;51.400;6.758;2023-12-14T08:56:02;26.53;;;23.63;;
82125;SDS011;71668;51.400;6.758;2023-12-14T08:58:29;26.77;;;22.77;;
82125;SDS011;71668;51.400;6.758;2023-12-14T09:00:56;25.03;;;22.30;;
82125;SDS011;71668;51.400;6.758;2023-12-14T09:03:23;24.27;;;21.67;;
82125;SDS011;71668;51.400;6.758;2023-12-14T09:05:50;24.60;;;21.13;;
82125;SDS011;71668;51.400;6.758;2023-12-14T09:08:19;24.43;;;21.77;;
82125;SDS011;71668;51.400;6.758;2023-12-14T09:10:46;24.03;;;21.43;;
82125;SDS011;71668;51.400;6.758;2023-12-14T09:13:13;22.80;;;20.40;;
82125;SDS011;71668;51.400;6.758;2023-12-14T09:15:40;23.73;;;21.23;;
82125;SDS011;71668;51.400;6.758;2023-12-14T09:18:09;23.73;;;21.17;;
82125;SDS011;71668;51.400;6.758;2023-12-14T09:20:36;22.63;;;20.33;;
82125;SDS011;71668;51.400;6.758;2023-12-14T09:23:03;21.97;;;19.67;;
82125;SDS011;71668;51.400;6.758;2023-12-14T09:25:30;23.83;;;20.50;;
82125;SDS011;71668;51.400;6.758;2023-12-14T09:27:59;23.27;;;20.87;;
82125;SDS011;71668;51.400;6.758;2023-12-14T09:30:26;21.93;;;19.63;;
82125;SDS011;71668;51.400;6.758;2023-12-14T09:32:53;23.03;;;20.63;;
82125;SDS011;71668;51.400;6.758;2023-12-14T09:35:20;23.00;;;20.60;;
82125;SDS011;71668;51.400;6.758;2023-12-14T09:37:47;23.20;;;20.77;;
82125;SDS011;71668;51.400;6.758;2023-12-14T09:40:21;23.73;;;21.17;;
82125;SDS011;71668;51.400;6.758;2023-12-14T09:42:51;23.50;;;20.17;;
82125;SDS011;71668;51.400;6.758;2023-12-14T09:45:20;22.13;;;19.87;;
82125;SDS011;71668;51.400;6.758;2023-12-14T09:47:50;21.23;;;18.93;;
82125;SDS011;71668;51.400;6.758;2023-12-14T09:50:19;21.77;;;19.47;;
82125;SDS011;71668;51.400;6.758;2023-12-14T09:52:47;21.53;;;19.37;;
82125;SDS011;71668;51.400;6.758;2023-12-14T09:55:15;19.47;;;17.57;;
82125;SDS011;71668;51.400;6.758;2023-12-14T09:57:42;19.73;;;17.63;;
82125;SDS011;71668;51.400;6.758;2023-12-14T10:00:09;19.43;;;17.50;;
82125;SDS011;71668;51.400;6.758;2023-12-14T10:02:40;18.40;;;16.50;;
82125;SDS011;71668;51.400;6.758;2023-12-14T10:05:09;18.27;;;16.37;;
82125;SDS011;71668;51.400;6.758;2023-12-14T10:07:43;16.57;;;14.40;;
82125;SDS011;71668;51.400;6.758;2023-12-14T10:10:11;17.30;;;15.60;;
82125;SDS011;71668;51.400;6.758;2023-12-14T10:12:52;17.30;;;15.50;;
82125;SDS011;71668;51.400;6.758;2023-12-14T10:15:20;18.93;;;15.67;;
82125;SDS011;71668;51.400;6.758;2023-12-14T10:17:53;17.07;;;15.27;;
82125;SDS011;71668;51.400;6.758;2023-12-14T10:20:21;16.77;;;15.17;;
82125;SDS011;71668;51.400;6.758;2023-12-14T10:22:49;15.90;;;14.33;;
82125;SDS011;71668;51.400;6.758;2023-12-14T10:25:19;15.83;;;14.00;;
82125;SDS011;71668;51.400;6.758;2023-12-14T10:27:46;15.07;;;13.57;;
82125;SDS011;71668;51.400;6.758;2023-12-14T10:30:14;14.53;;;13.13;;
82125;SDS011;71668;51.400;6.758;2023-12-14T10:32:41;14.67;;;13.17;;
82125;SDS011;71668;51.400;6.758;2023-12-14T10:35:22;14.27;;;12.87;;
82125;SDS011;71668;51.400;6.758;2023-12-14T10:37:50;15.10;;;12.57;;
82125;SDS011;71668;51.400;6.758;2023-12-14T10:40:18;14.37;;;12.97;;
82125;SDS011;71668;51.400;6.758;2023-12-14T10:42:46;15.30;;;12.93;;
82125;SDS011;71668;51.400;6.758;2023-12-14T10:45:15;13.67;;;12.20;;
82125;SDS011;71668;51.400;6.758;2023-12-14T10:47:49;13.97;;;12.53;;
82125;SDS011;71668;51.400;6.758;2023-12-14T10:50:17;14.03;;;12.73;;
82125;SDS011;71668;51.400;6.758;2023-12-14T10:52:45;13.17;;;11.87;;
82125;SDS011;71668;51.400;6.758;2023-12-14T10:55:24;14.23;;;12.83;;
82125;SDS011;71668;51.400;6.758;2023-12-14T10:58:12;14.23;;;12.83;;
82125;SDS011;71668;51.400;6.758;2023-12-14T11:00:40;14.37;;;13.07;;
82125;SDS011;71668;51.400;6.758;2023-12-14T11:03:12;13.93;;;12.53;;
82125;SDS011;71668;51.400;6.758;2023-12-14T11:05:39;13.60;;;12.20;;
82125;SDS011;71668;51.400;6.758;2023-12-14T11:08:07;13.87;;;12.50;;
82125;SDS011;71668;51.400;6.758;2023-12-14T11:10:41;13.13;;;11.80;;
82125;SDS011;71668;51.400;6.758;2023-12-14T11:13:13;11.30;;;10.20;;
82125;SDS011;71668;51.400;6.758;2023-12-14T11:15:48;12.17;;;10.93;;
82125;SDS011;71668;51.400;6.758;2023-12-14T11:20:48;12.47;;;11.20;;
82125;SDS011;71668;51.400;6.758;2023-12-14T11:23:27;13.43;;;11.37;;
82125;SDS011;71668;51.400;6.758;2023-12-14T11:26:03;12.93;;;10.60;;
82125;SDS011;71668;51.400;6.758;2023-12-14T11:28:35;11.00;;;9.90;;
82125;SDS011;71668;51.400;6.758;2023-12-14T11:31:04;11.13;;;10.03;;
82125;SDS011;71668;51.400;6.758;2023-12-14T11:33:34;11.67;;;10.33;;
82125;SDS011;71668;51.400;6.758;2023-12-14T11:36:08;11.00;;;9.67;;
82125;SDS011;71668;51.400;6.758;2023-12-14T11:38:36;10.90;;;9.77;;
82125;SDS011;71668;51.400;6.758;2023-12-14T11:41:03;10.60;;;9.50;;
82125;SDS011;71668;51.400;6.758;2023-12-14T11:43:38;10.47;;;8.90;;
82125;SDS011;71668;51.400;6.758;2023-12-14T11:46:15;9.43;;;8.43;;
82125;SDS011;71668;51.400;6.758;2023-12-14T11:48:45;9.73;;;8.70;;
82125;SDS011;71668;51.400;6.758;2023-12-14T11:51:13;9.33;;;8.43;;
82125;SDS011;71668;51.400;6.758;2023-12-14T11:53:39;9.43;;;8.47;;
82125;SDS011;71668;51.400;6.758;2023-12-14T11:56:07;9.27;;;8.37;;
82125;SDS011;71668;51.400;6.758;2023-12-14T11:58:34;10.10;;;8.70;;
82125;SDS011;71668;51.400;6.758;2023-12-14T12:01:15;9.53;;;8.63;;
82125;SDS011;71668;51.400;6.758;2023-12-14T12:03:43;9.57;;;8.50;;
82125;SDS011;71668;51.400;6.758;2023-12-14T12:06:19;9.40;;;8.47;;
82125;SDS011;71668;51.400;6.758;2023-12-14T12:08:57;9.33;;;8.13;;
82125;SDS011;71668;51.400;6.758;2023-12-14T12:11:25;10.47;;;8.33;;
82125;SDS011;71668;51.400;6.758;2023-12-14T12:13:54;9.53;;;8.53;;
82125;SDS011;71668;51.400;6.758;2023-12-14T12:16:22;8.60;;;7.80;;
82125;SDS011;71668;51.400;6.758;2023-12-14T12:18:50;8.93;;;8.03;;
82125;SDS011;71668;51.400;6.758;2023-12-14T12:21:18;9.17;;;8.27;;
82125;SDS011;71668;51.400;6.758;2023-12-14T12:23:44;10.80;;;9.00;;
82125;SDS011;71668;51.400;6.758;2023-12-14T12:26:11;12.30;;;10.00;;
82125;SDS011;71668;51.400;6.758;2023-12-14T12:28:39;10.43;;;9.43;;
82125;SDS011;71668;51.400;6.758;2023-12-14T12:31:05;13.60;;;9.80;;
82125;SDS011;71668;51.400;6.758;2023-12-14T12:33:32;11.93;;;10.70;;
82125;SDS011;71668;51.400;6.758;2023-12-14T12:36:04;10.83;;;9.37;;
82125;SDS011;71668;51.400;6.758;2023-12-14T12:38:31;11.47;;;10.37;;
82125;SDS011;71668;51.400;6.758;2023-12-14T12:40:58;9.33;;;8.40;;
82125;SDS011;71668;51.400;6.758;2023-12-14T12:43:27;11.30;;;9.13;;
82125;SDS011;71668;51.400;6.758;2023-12-14T12:45:53;10.40;;;9.13;;
82125;SDS011;71668;51.400;6.758;2023-12-14T12:48:20;9.60;;;8.60;;
82125;SDS011;71668;51.400;6.758;2023-12-14T12:50:52;8.97;;;8.13;;
82125;SDS011;71668;51.400;6.758;2023-12-14T12:53:19;10.23;;;8.53;;
82125;SDS011;71668;51.400;6.758;2023-12-14T12:55:46;9.07;;;8.20;;
82125;SDS011;71668;51.400;6.758;2023-12-14T12:58:13;9.37;;;8.43;;
82125;SDS011;71668;51.400;6.758;2023-12-14T13:00:41;9.50;;;8.60;;
82125;SDS011;71668;51.400;6.758;2023-12-14T13:03:07;9.60;;;8.07;;
82125;SDS011;71668;51.400;6.758;2023-12-14T13:05:34;9.03;;;8.07;;
82125;SDS011;71668;51.400;6.758;2023-12-14T13:08:01;8.70;;;7.57;;
82125;SDS011;71668;51.400;6.758;2023-12-14T13:10:28;8.07;;;7.27;;
82125;SDS011;71668;51.400;6.758;2023-12-14T13:12:58;8.20;;;7.40;;
82125;SDS011;71668;51.400;6.758;2023-12-14T13:15:26;7.67;;;6.97;;
82125;SDS011;71668;51.400;6.758;2023-12-14T13:17:56;7.10;;;6.00;;
82125;SDS011;71668;51.400;6.758;2023-12-14T13:20:23;6.90;;;6.27;;
82125;SDS011;71668;51.400;6.758;2023-12-14T13:22:53;6.70;;;5.53;;
82125;SDS011;71668;51.400;6.758;2023-12-14T13:25:20;6.90;;;6.17;;
82125;SDS011;71668;51.400;6.758;2023-12-14T13:27:49;6.70;;;6.10;;
82125;SDS011;71668;51.400;6.758;2023-12-14T13:30:16;7.70;;;5.83;;
82125;SDS011;71668;51.400;6.758;2023-12-14T13:32:44;5.97;;;5.37;;
82125;SDS011;71668;51.400;6.758;2023-12-14T13:35:12;6.40;;;5.80;;
82125;SDS011;71668;51.400;6.758;2023-12-14T13:37:39;6.40;;;5.47;;
82125;SDS011;71668;51.400;6.758;2023-12-14T13:40:06;6.27;;;5.67;;
82125;SDS011;71668;51.400;6.758;2023-12-14T13:42:36;6.60;;;6.00;;
82125;SDS011;71668;51.400;6.758;2023-12-14T13:45:15;6.30;;;5.77;;
82125;SDS011;71668;51.400;6.758;2023-12-14T13:47:43;6.17;;;5.63;;
82125;SDS011;71668;51.400;6.758;2023-12-14T13:50:09;6.37;;;5.77;;
82125;SDS011;71668;51.400;6.758;2023-12-14T13:52:37;6.40;;;5.80;;
82125;SDS011;71668;51.400;6.758;2023-12-14T13:55:04;7.73;;;6.90;;
82125;SDS011;71668;51.400;6.758;2023-12-14T13:57:32;8.10;;;7.30;;
82125;SDS011;71668;51.400;6.758;2023-12-14T14:00:00;8.10;;;6.90;;
82125;SDS011;71668;51.400;6.758;2023-12-14T14:02:27;8.43;;;7.67;;
82125;SDS011;71668;51.400;6.758;2023-12-14T14:04:54;8.00;;;7.20;;
82125;SDS011;71668;51.400;6.758;2023-12-14T14:07:22;7.97;;;7.20;;
82125;SDS011;71668;51.400;6.758;2023-12-14T14:09:48;8.67;;;7.77;;
82125;SDS011;71668;51.400;6.758;2023-12-14T14:12:15;8.23;;;7.47;;
82125;SDS011;71668;51.400;6.758;2023-12-14T14:14:42;8.90;;;8.00;;
82125;SDS011;71668;51.400;6.758;2023-12-14T14:17:09;9.53;;;8.53;;
82125;SDS011;71668;51.400;6.758;2023-12-14T14:19:37;8.60;;;7.80;;
82125;SDS011;71668;51.400;6.758;2023-12-14T14:22:04;8.60;;;7.70;;
82125;SDS011;71668;51.400;6.758;2023-12-14T14:24:31;8.80;;;8.00;;
82125;SDS011;71668;51.400;6.758;2023-12-14T14:26:58;8.53;;;7.73;;
82125;SDS011;71668;51.400;6.758;2023-12-14T14:29:25;8.90;;;8.10;;
82125;SDS011;71668;51.400;6.758;2023-12-14T14:31:52;8.17;;;7.47;;
82125;SDS011;71668;51.400;6.758;2023-12-14T14:34:19;10.07;;;8.13;;
82125;SDS011;71668;51.400;6.758;2023-12-14T14:36:50;8.63;;;7.83;;